^^
Station Historical Data
 
Daily Summary for October 01, 2016 Units:  English    Metric   Both
« Previous Day
Next Day »
Daily Weekly Monthly Yearly Custom
  Current: High: Low: Average:
Temperature: 73.0 °F 73.0 °F 46.4 °F 53.2 °F
Dew Point: 44.5 °F 48.9 °F 41.8 °F 44.5 °F
Humidity: 36% 88% 35% 75%
Wind Speed: 2.3mph 4.6mph 0.0mph 0.2mph
Wind Gust: 2.3mph 4.6mph - -
WindSSE - - SSE
Pressure: 29.81 in 29.92 in 29.78 in -
Precipitation: 0.00 in      
Historical Graphs
 
 
Tabular Data for October 01, 2016
Time Temperature Dew Point Pressure Wind Wind Speed Wind Gust Humidity Rainfall Rate (Hourly) solar Conditions
00:01 52.8 °F 45.8 °F 29.92 in Calm     77% 0.00 in WeatherDisplay:10.37 W/m2 RA
00:06 52.6 °F 45.9 °F 29.91 in Calm     78% 0.00 in WeatherDisplay:10.37 W/m2 RA
00:11 52.5 °F 45.8 °F 29.91 in Calm     78% 0.00 in WeatherDisplay:10.37 W/m2 CLR
00:16 52.2 °F 45.5 °F 29.91 in Calm     78% 0.00 in WeatherDisplay:10.37 W/m2 CLR
00:21 51.7 °F 45.4 °F 29.92 in Calm     79% 0.00 in WeatherDisplay:10.37 W/m2 CLR
00:26 51.1 °F 44.1 °F 29.92 in Calm     77% 0.00 in WeatherDisplay:10.37 W/m2 CLR
00:31 50.7 °F 44.1 °F 29.92 in Calm     78% 0.00 in WeatherDisplay:10.37 W/m2 CLR
00:36 50.7 °F 44.1 °F 29.92 in Calm     78% 0.00 in WeatherDisplay:10.37 W/m2 CLR
00:41 50.7 °F 44.4 °F 29.92 in Calm     79% 0.00 in WeatherDisplay:10.37 W/m2 CLR
00:46 50.5 °F 44.6 °F 29.91 in Calm     80% 0.00 in WeatherDisplay:10.37 W/m2 CLR
00:51 50.5 °F 44.9 °F 29.91 in Calm     81% 0.00 in WeatherDisplay:10.37 W/m2 CLR
00:56 50.5 °F 44.9 °F 29.91 in Calm     81% 0.00 in WeatherDisplay:10.37 W/m2 CLR
01:01 50.5 °F 45.2 °F 29.91 in Calm     82% 0.00 in WeatherDisplay:10.37 W/m2 CLR
01:06 50.5 °F 45.2 °F 29.89 in Calm     82% 0.00 in WeatherDisplay:10.37 W/m2 CLR
01:11 50.4 °F 45.4 °F 29.89 in Calm     83% 0.00 in WeatherDisplay:10.37 W/m2 CLR
01:16 50.2 °F 45.2 °F 29.89 in Calm     83% 0.00 in WeatherDisplay:10.37 W/m2 CLR
01:21 50.1 °F 45.1 °F 29.89 in Calm     83% 0.00 in WeatherDisplay:10.37 W/m2 CLR
01:26 49.9 °F 44.9 °F 29.89 in Calm     83% 0.00 in WeatherDisplay:10.37 W/m2 CLR
01:31 49.6 °F 44.6 °F 29.89 in Calm     83% 0.00 in WeatherDisplay:10.37 W/m2 CLR
01:36 49.5 °F 44.6 °F 29.89 in Calm     83% 0.00 in WeatherDisplay:10.37 W/m2 CLR
01:41 49.4 °F 44.5 °F 29.90 in Calm     83% 0.00 in WeatherDisplay:10.37 W/m2 CLR
01:46 49.4 °F 44.5 °F 29.90 in Calm     83% 0.00 in WeatherDisplay:10.37 W/m2 CLR
01:51 49.2 °F 44.3 °F 29.90 in Calm     83% 0.00 in WeatherDisplay:10.37 W/m2 CLR
01:56 49.1 °F 44.2 °F 29.90 in Calm     83% 0.00 in WeatherDisplay:10.37 W/m2 CLR
02:01 48.9 °F 44.3 °F 29.86 in Calm     84% 0.00 in WeatherDisplay:10.37 W/m2 CLR
02:06 48.8 °F 43.9 °F 29.86 in Calm     83% 0.00 in WeatherDisplay:10.37 W/m2 CLR
02:11 47.9 °F 42.7 °F 29.88 in Calm     82% 0.00 in WeatherDisplay:10.37 W/m2 CLR
02:16 47.4 °F 42.5 °F 29.87 in Calm     83% 0.00 in WeatherDisplay:10.37 W/m2 CLR
02:21 47.0 °F 41.8 °F 29.87 in Calm     82% 0.00 in WeatherDisplay:10.37 W/m2 CLR
02:26 47.0 °F 42.4 °F 29.87 in Calm     84% 0.00 in WeatherDisplay:10.37 W/m2 CLR
02:31 47.1 °F 42.5 °F 29.87 in Calm     84% 0.00 in WeatherDisplay:10.37 W/m2 CLR
02:36 47.3 °F 43.0 °F 29.87 in Calm     85% 0.00 in WeatherDisplay:10.37 W/m2 CLR
02:41 47.4 °F 43.1 °F 29.86 in Calm     85% 0.00 in WeatherDisplay:10.37 W/m2 CLR
02:46 47.6 °F 43.6 °F 29.86 in Calm     86% 0.00 in WeatherDisplay:10.37 W/m2 CLR
02:51 47.7 °F 43.7 °F 29.86 in Calm     86% 0.00 in WeatherDisplay:10.37 W/m2 CLR
02:56 47.9 °F 43.9 °F 29.86 in Calm     86% 0.00 in WeatherDisplay:10.37 W/m2 CLR
03:11 47.1 °F 43.1 °F 29.87 in Calm     86% 0.00 in WeatherDisplay:10.37 W/m2 CLR
03:16 47.1 °F 43.4 °F 29.86 in Calm     87% 0.00 in WeatherDisplay:10.37 W/m2 CLR
03:27 47.3 °F 43.6 °F 29.86 in Calm     87% 0.00 in WeatherDisplay:10.37 W/m2 CLR
03:32 47.1 °F 43.4 °F 29.86 in Calm     87% 0.00 in WeatherDisplay:10.37 W/m2 CLR
03:37 47.1 °F 43.4 °F 29.86 in Calm     87% 0.00 in WeatherDisplay:10.37 W/m2 CLR
03:42 47.1 °F 43.4 °F 29.86 in Calm     87% 0.00 in WeatherDisplay:10.37 W/m2 CLR
03:47 47.1 °F 43.4 °F 29.86 in Calm     87% 0.00 in WeatherDisplay:10.37 W/m2 CLR
03:52 46.8 °F 43.1 °F 29.86 in Calm     87% 0.00 in WeatherDisplay:10.37 W/m2 CLR
03:57 46.7 °F 43.0 °F 29.86 in Calm     87% 0.00 in WeatherDisplay:10.37 W/m2 CLR
04:02 46.5 °F 42.8 °F 29.85 in Calm     87% 0.00 in WeatherDisplay:10.37 W/m2 CLR
04:07 46.4 °F 42.7 °F 29.86 in Calm     87% 0.00 in WeatherDisplay:10.37 W/m2 CLR
04:12 46.5 °F 43.1 °F 29.85 in Calm     88% 0.00 in WeatherDisplay:10.37 W/m2 CLR
04:17 46.7 °F 43.3 °F 29.85 in Calm     88% 0.00 in WeatherDisplay:10.37 W/m2 CLR
04:22 47.0 °F 43.6 °F 29.85 in Calm     88% 0.00 in WeatherDisplay:10.37 W/m2 CLR
04:27 47.3 °F 43.9 °F 29.85 in Calm     88% 0.00 in WeatherDisplay:10.37 W/m2 CLR
04:32 47.4 °F 43.7 °F 29.85 in Calm     87% 0.00 in WeatherDisplay:10.37 W/m2 CLR
04:37 47.4 °F 43.7 °F 29.85 in Calm     87% 0.00 in WeatherDisplay:10.37 W/m2 CLR
04:47 47.7 °F 44.0 °F 29.84 in Calm     87% 0.00 in WeatherDisplay:10.37 W/m2 CLR
04:52 47.9 °F 44.5 °F 29.84 in Calm     88% 0.00 in WeatherDisplay:10.37 W/m2 CLR
04:57 48.0 °F 44.6 °F 29.84 in Calm     88% 0.00 in WeatherDisplay:10.37 W/m2 CLR
05:02 48.2 °F 44.8 °F 29.84 in Calm     88% 0.00 in WeatherDisplay:10.37 W/m2 CLR
05:07 48.3 °F 44.9 °F 29.84 in Calm     88% 0.00 in WeatherDisplay:10.37 W/m2 CLR
05:12 48.5 °F 45.1 °F 29.84 in Calm     88% 0.00 in WeatherDisplay:10.37 W/m2 CLR
05:17 48.3 °F 44.6 °F 29.84 in Calm     87% 0.00 in WeatherDisplay:10.37 W/m2 CLR
05:22 48.0 °F 44.0 °F 29.85 in Calm     86% 0.00 in WeatherDisplay:10.37 W/m2 CLR
05:27 47.9 °F 43.9 °F 29.85 in Calm     86% 0.00 in WeatherDisplay:10.37 W/m2 CLR
05:32 48.0 °F 44.0 °F 29.85 in Calm     86% 0.00 in WeatherDisplay:10.37 W/m2 CLR
05:42 48.3 °F 44.3 °F 29.84 in Calm     86% 0.00 in WeatherDisplay:10.37 W/m2 CLR
05:47 48.5 °F 44.2 °F 29.85 in Calm     85% 0.00 in WeatherDisplay:10.37 W/m2 CLR
05:52 48.5 °F 44.2 °F 29.84 in Calm     85% 0.00 in WeatherDisplay:10.37 W/m2 CLR
05:57 48.3 °F 44.0 °F 29.84 in Calm     85% 0.00 in WeatherDisplay:10.37 W/m2 CLR
06:02 48.3 °F 44.0 °F 29.87 in Calm     85% 0.00 in WeatherDisplay:10.37 W/m2 CLR
06:07 48.2 °F 43.9 °F 29.87 in Calm     85% 0.00 in WeatherDisplay:10.37 W/m2 CLR
06:17 48.2 °F 43.9 °F 29.88 in Calm     85% 0.00 in WeatherDisplay:10.37 W/m2 CLR
06:22 48.2 °F 43.9 °F 29.78 in Calm     85% 0.00 in WeatherDisplay:10.37 W/m2 CLR
06:27 48.2 °F 43.9 °F 29.78 in Calm     85% 0.00 in WeatherDisplay:10.37 W/m2 CLR
06:32 48.2 °F 43.9 °F 29.78 in Calm     85% 0.00 in WeatherDisplay:10.37 W/m2 CLR
06:37 48.2 °F 43.9 °F 29.78 in Calm     85% 0.00 in WeatherDisplay:10.37 W/m2 CLR
06:42 48.2 °F 43.9 °F 29.78 in Calm     85% 0.00 in WeatherDisplay:10.37 W/m2 CLR
06:47 48.2 °F 43.9 °F 29.78 in Calm     85% 0.00 in WeatherDisplay:10.37 W/m2 CLR
06:52 47.3 °F 42.7 °F 29.89 in Calm     84% 0.00 in WeatherDisplay:10.37 W/m2 CLR
06:57 47.4 °F 43.1 °F 29.89 in Calm     85% 0.00 in WeatherDisplay:10.37 W/m2 CLR
07:02 47.6 °F 43.3 °F 29.91 in Calm     85% 0.00 in WeatherDisplay:10.37 W/m2 CLR
07:07 47.6 °F 43.3 °F 29.91 in Calm     85% 0.00 in WeatherDisplay:10.37 W/m2 CLR
07:12 47.6 °F 43.3 °F 29.91 in Calm     85% 0.00 in WeatherDisplay:10.37 W/m2 CLR
07:17 48.0 °F 44.0 °F 29.91 in Calm     86% 0.00 in WeatherDisplay:10.37 W/m2 CLR
07:22 48.6 °F 44.6 °F 29.90 in Calm     86% 0.00 in WeatherDisplay:10.37 W/m2 CLR
07:27 49.4 °F 45.4 °F 29.90 in Calm     86% 0.00 in WeatherDisplay:10.37 W/m2 CLR
07:32 49.9 °F 45.6 °F 29.90 in Calm     85% 0.00 in WeatherDisplay:10.37 W/m2 CLR
07:37 51.0 °F 46.6 °F 29.89 in Calm     85% 0.00 in WeatherDisplay:10.37 W/m2 CLR
07:42 52.0 °F 47.3 °F 29.89 in Calm     84% 0.00 in WeatherDisplay:10.37 W/m2 CLR
07:47 52.9 °F 47.2 °F 29.88 in Calm     81% 0.00 in WeatherDisplay:10.37 W/m2 CLR
07:52 53.5 °F 47.1 °F 29.88 in Calm     79% 0.00 in WeatherDisplay:10.37 W/m2 CLR
07:57 54.2 °F 47.8 °F 29.88 in Calm     79% 0.00 in WeatherDisplay:10.37 W/m2 CLR
08:02 55.7 °F 48.6 °F 29.87 in Calm     77% 0.00 in WeatherDisplay:10.37 W/m2 CLR
08:07 57.0 °F 48.4 °F 29.87 in Calm     73% 0.00 in WeatherDisplay:10.37 W/m2 CLR
08:12 58.3 °F 48.9 °F 29.85 in Calm     71% 0.00 in WeatherDisplay:10.37 W/m2 CLR
08:17 59.2 °F 48.2 °F 29.86 in Calm     67% 0.00 in WeatherDisplay:10.37 W/m2 CLR
08:22 59.8 °F 48.0 °F 29.85 in Calm     65% 0.00 in WeatherDisplay:10.37 W/m2 CLR
08:32 60.9 °F 46.5 °F 29.85 in SSE 1.2 mph   59% 0.00 in WeatherDisplay:10.37 W/m2 CLR
08:37 61.3 °F 45.9 °F 29.85 in Calm     57% 0.00 in WeatherDisplay:10.37 W/m2 CLR
08:42 62.0 °F 45.6 °F 29.84 in SSE 2.3 mph 2.3 mph 55% 0.00 in WeatherDisplay:10.37 W/m2 CLR
08:52 62.9 °F 47.0 °F 29.84 in Calm     56% 0.00 in WeatherDisplay:10.37 W/m2 CLR
08:58 63.2 °F 45.8 °F 29.84 in SSE 1.2 mph 1.2 mph 53% 0.00 in WeatherDisplay:10.37 W/m2 CLR
09:03 64.0 °F 46.5 °F 29.86 in SSE 1.2 mph   53% 0.00 in WeatherDisplay:10.37 W/m2 CLR
09:08 64.5 °F 46.5 °F 29.85 in Calm     52% 0.00 in WeatherDisplay:10.37 W/m2 CLR
09:13 65.0 °F 46.4 °F 29.85 in Calm     51% 0.00 in WeatherDisplay:10.37 W/m2 CLR
09:18 65.2 °F 46.6 °F 29.85 in Calm     51% 0.00 in WeatherDisplay:10.37 W/m2 CLR
09:23 65.5 °F 45.8 °F 29.85 in Calm     49% 0.00 in WeatherDisplay:10.37 W/m2 CLR
09:28 65.3 °F 44.5 °F 29.85 in Calm     47% 0.00 in WeatherDisplay:10.37 W/m2 CLR
09:33 65.3 °F 45.6 °F 29.85 in SSE 1.2 mph   49% 0.00 in WeatherDisplay:10.37 W/m2 CLR
09:38 65.6 °F 43.7 °F 29.85 in SSE 2.3 mph 2.3 mph 45% 0.00 in WeatherDisplay:10.37 W/m2 CLR
09:43 66.3 °F 44.9 °F 29.85 in Calm     46% 0.00 in WeatherDisplay:10.37 W/m2 CLR
09:48 66.4 °F 44.4 °F 29.85 in Calm   0.1 mph 45% 0.00 in WeatherDisplay:10.37 W/m2 CLR
09:53 66.3 °F 42.5 °F 29.85 in SSE 2.3 mph   42% 0.00 in WeatherDisplay:10.37 W/m2 CLR
10:03 68.1 °F 43.5 °F 29.84 in Calm     41% 0.00 in WeatherDisplay:10.37 W/m2 CLR
10:13 69.4 °F 44.0 °F 29.84 in Calm     40% 0.00 in WeatherDisplay:10.37 W/m2 CLR
10:18 70.3 °F 43.5 °F 29.83 in Calm     38% 0.00 in WeatherDisplay:10.37 W/m2 CLR
10:23 70.9 °F 44.0 °F 29.83 in Calm     38% 0.00 in WeatherDisplay:10.37 W/m2 CLR
10:28 71.8 °F 44.8 °F 29.82 in Calm     38% 0.00 in WeatherDisplay:10.37 W/m2 CLR
10:33 72.0 °F 42.8 °F 29.82 in SSE 2.3 mph 2.3 mph 35% 0.00 in WeatherDisplay:10.37 W/m2 CLR
10:38 71.5 °F 42.4 °F 29.82 in SE 4.6 mph 4.6 mph 35% 0.00 in WeatherDisplay:10.37 W/m2 CLR
10:43 71.5 °F 43.1 °F 29.82 in SE 2.3 mph 2.3 mph 36% 0.00 in WeatherDisplay:10.37 W/m2 CLR
10:48 71.6 °F 43.2 °F 29.82 in SSE 2.3 mph 2.3 mph 36% 0.00 in WeatherDisplay:10.37 W/m2 CLR
10:58 72.5 °F 44.0 °F 29.81 in SSE 3.0 mph 3.0 mph 36% 0.00 in WeatherDisplay:10.37 W/m2 CLR
11:03 73.0 °F 44.5 °F 29.81 in SSE 2.3 mph 2.3 mph 36% 0.00 in WeatherDisplay:10.37 W/m2 CLR
Windsor Co Weather
Compliments of Weather Underground - 2 mb